N850LD LFLB-LFQQ
Flight info
| Callsign | N850LD |
|---|---|
| Flight time | N/A |
| Altitude | 30000 |
| Route | BUSIL DCT AMORO DCT MOMIL DCT BAGBI DCT SIZZA DCT BRY DCT CTL DCT YODHA DCT MATIX |
| Aircraft | TBM8/L-SBDGRWY/SB1 |
Departure
| Time | 2026-05-08 18:43 |
|---|---|
| Airport | Chambéry Aix les Bains airport (LFLB) |
Arrival
| Time | N/A |
|---|---|
| Airport | Lille Airport (LFQQ) |
| Time | Latitude | Longitude | Altitude | Speed | Heading |
|---|---|---|---|---|---|
| 2026-05-08 18:32 | 45.63778 | 5.88296 | 773 ft | 0 kts | 86° |
| 2026-05-08 18:40 | 45.63779 | 5.88300 | 773 ft | 2 kts | 59° |
| 2026-05-08 18:40 | 45.63832 | 5.88271 | 773 ft | 18 kts | 332° |
| 2026-05-08 18:40 | 45.63915 | 5.88236 | 773 ft | 9 kts | 356° |
| 2026-05-08 18:41 | 45.63971 | 5.88230 | 773 ft | 8 kts | 355° |
| 2026-05-08 18:41 | 45.64036 | 5.88218 | 773 ft | 11 kts | 324° |
| 2026-05-08 18:41 | 45.64040 | 5.88093 | 773 ft | 13 kts | 263° |
| 2026-05-08 18:41 | 45.64035 | 5.88032 | 772 ft | 5 kts | 256° |
| 2026-05-08 18:42 | 45.63915 | 5.88018 | 773 ft | 39 kts | 175° |
| 2026-05-08 18:42 | 45.63441 | 5.88053 | 812 ft | 90 kts | 176° |
| 2026-05-08 18:42 | 45.62744 | 5.88103 | 1074 ft | 112 kts | 173° |
| 2026-05-08 18:42 | 45.61884 | 5.88218 | 1375 ft | 135 kts | 172° |
| 2026-05-08 18:43 | 45.60911 | 5.88313 | 1921 ft | 137 kts | 177° |
| 2026-05-08 18:43 | 45.59981 | 5.88353 | 2538 ft | 133 kts | 175° |
| 2026-05-08 18:43 | 45.59053 | 5.88448 | 3049 ft | 135 kts | 174° |
| 2026-05-08 18:43 | 45.58431 | 5.88503 | 3395 ft | 136 kts | 174° |
| 2026-05-08 18:44 | 45.57395 | 5.88591 | 3976 ft | 137 kts | 175° |
| 2026-05-08 18:44 | 45.56438 | 5.88665 | 4515 ft | 138 kts | 176° |
| 2026-05-08 18:45 | 45.55481 | 5.88773 | 5045 ft | 139 kts | 171° |
| 2026-05-08 18:45 | 45.54575 | 5.89237 | 5572 ft | 140 kts | 146° |
| 2026-05-08 18:45 | 45.54013 | 5.90372 | 6122 ft | 147 kts | 105° |
| 2026-05-08 18:45 | 45.54192 | 5.91787 | 6643 ft | 151 kts | 55° |
| 2026-05-08 18:46 | 45.55037 | 5.92565 | 7117 ft | 150 kts | 6° |
| 2026-05-08 18:46 | 45.56037 | 5.92242 | 7605 ft | 146 kts | 323° |
| 2026-05-08 18:46 | 45.56772 | 5.91283 | 8064 ft | 147 kts | 311° |
| 2026-05-08 18:46 | 45.57687 | 5.90551 | 8540 ft | 153 kts | 338° |
| 2026-05-08 18:47 | 45.58697 | 5.90116 | 9040 ft | 154 kts | 338° |
| 2026-05-08 18:47 | 45.59708 | 5.89606 | 9533 ft | 155 kts | 335° |
| 2026-05-08 18:47 | 45.60711 | 5.89030 | 10012 ft | 156 kts | 333° |
| 2026-05-08 18:47 | 45.61713 | 5.88414 | 10454 ft | 158 kts | 332° |
| 2026-05-08 18:48 | 45.62718 | 5.87776 | 10907 ft | 158 kts | 331° |
| 2026-05-08 18:48 | 45.63718 | 5.87128 | 11360 ft | 159 kts | 330° |
| 2026-05-08 18:48 | 45.64727 | 5.86462 | 11806 ft | 161 kts | 328° |
| 2026-05-08 18:48 | 45.65546 | 5.85434 | 12252 ft | 156 kts | 296° |
| 2026-05-08 18:49 | 45.65888 | 5.83999 | 12687 ft | 152 kts | 274° |
| 2026-05-08 18:49 | 45.66001 | 5.82488 | 13124 ft | 153 kts | 270° |
| 2026-05-08 18:49 | 45.66087 | 5.80963 | 13571 ft | 155 kts | 269° |
| 2026-05-08 18:49 | 45.66176 | 5.79426 | 13996 ft | 156 kts | 270° |
| 2026-05-08 18:50 | 45.66269 | 5.77879 | 14392 ft | 157 kts | 270° |
| 2026-05-08 18:50 | 45.66369 | 5.76327 | 14807 ft | 157 kts | 270° |
| 2026-05-08 18:50 | 45.66468 | 5.74775 | 15219 ft | 157 kts | 270° |
| 2026-05-08 18:50 | 45.66571 | 5.73221 | 15632 ft | 157 kts | 270° |
| 2026-05-08 18:51 | 45.66656 | 5.71822 | 16010 ft | 158 kts | 270° |
| 2026-05-08 18:51 | 45.66720 | 5.70760 | 16292 ft | 158 kts | 270° |
| 2026-05-08 18:51 | 45.66816 | 5.69311 | 16679 ft | 159 kts | 271° |
| 2026-05-08 18:51 | 45.66924 | 5.67739 | 17091 ft | 159 kts | 271° |
| 2026-05-08 18:52 | 45.67031 | 5.66164 | 17496 ft | 159 kts | 271° |
| 2026-05-08 18:52 | 45.67109 | 5.65017 | 17792 ft | 159 kts | 270° |
| 2026-05-08 18:52 | 45.67215 | 5.63432 | 18194 ft | 161 kts | 271° |
| 2026-05-08 18:52 | 45.67325 | 5.61838 | 18541 ft | 162 kts | 271° |
| 2026-05-08 18:53 | 45.67430 | 5.60269 | 18879 ft | 163 kts | 272° |
| 2026-05-08 18:53 | 45.67789 | 5.58727 | 19197 ft | 170 kts | 298° |
| 2026-05-08 18:53 | 45.68471 | 5.57336 | 19550 ft | 171 kts | 299° |
| 2026-05-08 18:53 | 45.69122 | 5.55906 | 19890 ft | 172 kts | 298° |
| 2026-05-08 18:54 | 45.69775 | 5.54466 | 20231 ft | 173 kts | 299° |
| 2026-05-08 18:54 | 45.70437 | 5.53019 | 20568 ft | 175 kts | 299° |
| 2026-05-08 18:54 | 45.71108 | 5.51563 | 20905 ft | 176 kts | 300° |
| 2026-05-08 18:54 | 45.71785 | 5.50099 | 21243 ft | 177 kts | 300° |
| 2026-05-08 18:55 | 45.73149 | 5.47152 | 21933 ft | 178 kts | 301° |
| 2026-05-08 18:55 | 45.73836 | 5.45669 | 22270 ft | 179 kts | 301° |
| 2026-05-08 18:55 | 45.74517 | 5.44197 | 22605 ft | 180 kts | 301° |
| 2026-05-08 18:56 | 45.75217 | 5.42684 | 22960 ft | 180 kts | 302° |
| 2026-05-08 18:56 | 45.75909 | 5.41186 | 23300 ft | 181 kts | 302° |
| 2026-05-08 18:56 | 45.76593 | 5.39706 | 23621 ft | 181 kts | 302° |
| 2026-05-08 18:56 | 45.77313 | 5.38216 | 23865 ft | 184 kts | 309° |
| 2026-05-08 18:57 | 45.78286 | 5.37024 | 24118 ft | 185 kts | 323° |
| 2026-05-08 18:57 | 45.78997 | 5.36304 | 24318 ft | 185 kts | 322° |
| 2026-05-08 18:57 | 45.80380 | 5.34865 | 24659 ft | 186 kts | 322° |
| 2026-05-08 18:57 | 45.81426 | 5.33765 | 24930 ft | 187 kts | 322° |
| 2026-05-08 18:58 | 45.82474 | 5.32661 | 25197 ft | 187 kts | 321° |
| 2026-05-08 18:58 | 45.83523 | 5.31550 | 25468 ft | 188 kts | 321° |
| 2026-05-08 18:58 | 45.84575 | 5.30437 | 25737 ft | 188 kts | 321° |
| 2026-05-08 18:58 | 45.85625 | 5.29329 | 26066 ft | 186 kts | 321° |
| 2026-05-08 18:59 | 45.86658 | 5.28234 | 26363 ft | 184 kts | 320° |
| 2026-05-08 18:59 | 45.87690 | 5.27135 | 26628 ft | 185 kts | 320° |
| 2026-05-08 18:59 | 45.88722 | 5.26039 | 26888 ft | 185 kts | 320° |
| 2026-05-08 18:59 | 45.89758 | 5.24938 | 27149 ft | 186 kts | 320° |